sensor_id;sensor_type;location;lat;lon;timestamp;pressure;altitude;pressure_sealevel;temperature;humidity
76940;BME280;65885;55.848;35.916;2023-05-18T00:00:18;99741.81;;;8.24;45.90
76940;BME280;65885;55.848;35.916;2023-05-18T00:02:45;99740.97;;;8.22;46.39
76940;BME280;65885;55.848;35.916;2023-05-18T00:05:14;99741.88;;;8.21;46.56
76940;BME280;65885;55.848;35.916;2023-05-18T00:07:42;99737.56;;;8.20;46.31
76940;BME280;65885;55.848;35.916;2023-05-18T00:10:11;99732.38;;;8.18;46.63
76940;BME280;65885;55.848;35.916;2023-05-18T00:12:38;99740.25;;;8.17;46.13
76940;BME280;65885;55.848;35.916;2023-05-18T00:15:08;99740.28;;;8.15;47.81
76940;BME280;65885;55.848;35.916;2023-05-18T00:17:36;99738.56;;;8.14;48.61
76940;BME280;65885;55.848;35.916;2023-05-18T00:20:04;99736.00;;;8.13;48.37
76940;BME280;65885;55.848;35.916;2023-05-18T00:22:35;99738.63;;;8.13;47.92
76940;BME280;65885;55.848;35.916;2023-05-18T00:25:04;99744.69;;;8.13;48.53
76940;BME280;65885;55.848;35.916;2023-05-18T00:27:31;99741.19;;;8.14;48.39
76940;BME280;65885;55.848;35.916;2023-05-18T00:29:59;99740.25;;;8.17;48.06
76940;BME280;65885;55.848;35.916;2023-05-18T00:32:28;99740.16;;;8.20;47.57
76940;BME280;65885;55.848;35.916;2023-05-18T00:34:55;99747.06;;;8.22;49.39
76940;BME280;65885;55.848;35.916;2023-05-18T00:37:22;99742.66;;;8.24;49.15
76940;BME280;65885;55.848;35.916;2023-05-18T00:39:50;99740.00;;;8.26;47.90
76940;BME280;65885;55.848;35.916;2023-05-18T00:42:17;99748.59;;;8.29;48.49
76940;BME280;65885;55.848;35.916;2023-05-18T00:44:45;99740.75;;;8.29;49.02
76940;BME280;65885;55.848;35.916;2023-05-18T00:47:12;99738.09;;;8.31;48.17
76940;BME280;65885;55.848;35.916;2023-05-18T00:49:42;99742.47;;;8.32;49.04
76940;BME280;65885;55.848;35.916;2023-05-18T00:52:09;99743.34;;;8.31;49.53
76940;BME280;65885;55.848;35.916;2023-05-18T00:54:37;99740.69;;;8.32;49.50
76940;BME280;65885;55.848;35.916;2023-05-18T00:57:05;99742.47;;;8.32;49.35
76940;BME280;65885;55.848;35.916;2023-05-18T00:59:32;99738.09;;;8.32;49.12
76940;BME280;65885;55.848;35.916;2023-05-18T01:02:00;99736.38;;;8.31;48.40
76940;BME280;65885;55.848;35.916;2023-05-18T01:04:28;99744.22;;;8.31;48.46
76940;BME280;65885;55.848;35.916;2023-05-18T01:06:58;99739.00;;;8.31;48.89
76940;BME280;65885;55.848;35.916;2023-05-18T01:09:31;99744.22;;;8.31;48.46
76940;BME280;65885;55.848;35.916;2023-05-18T01:12:05;99742.41;;;8.33;49.24
76940;BME280;65885;55.848;35.916;2023-05-18T01:14:38;99738.94;;;8.33;48.97
76940;BME280;65885;55.848;35.916;2023-05-18T01:17:15;99743.31;;;8.32;49.18
76940;BME280;65885;55.848;35.916;2023-05-18T01:20:03;99741.50;;;8.34;49.06
76940;BME280;65885;55.848;35.916;2023-05-18T01:23:00;99745.00;;;8.35;49.37
76940;BME280;65885;55.848;35.916;2023-05-18T01:25:33;99740.63;;;8.36;49.56
76940;BME280;65885;55.848;35.916;2023-05-18T01:28:13;99742.34;;;8.37;49.07
76940;BME280;65885;55.848;35.916;2023-05-18T01:30:42;99745.75;;;8.39;49.33
76940;BME280;65885;55.848;35.916;2023-05-18T01:33:12;99736.16;;;8.41;49.77
76940;BME280;65885;55.848;35.916;2023-05-18T01:35:39;99735.19;;;8.43;50.14
76940;BME280;65885;55.848;35.916;2023-05-18T01:38:13;99751.66;;;8.47;49.61
76940;BME280;65885;55.848;35.916;2023-05-18T01:40:47;99739.34;;;8.50;49.87
76940;BME280;65885;55.848;35.916;2023-05-18T01:43:19;99741.75;;;8.58;52.02
76940;BME280;65885;55.848;35.916;2023-05-18T01:45:53;99743.34;;;8.64;51.26
76940;BME280;65885;55.848;35.916;2023-05-18T01:48:24;99748.34;;;8.71;51.15
76940;BME280;65885;55.848;35.916;2023-05-18T01:50:54;99743.75;;;8.79;51.12
76940;BME280;65885;55.848;35.916;2023-05-18T01:53:28;99747.78;;;8.89;50.63
76940;BME280;65885;55.848;35.916;2023-05-18T01:56:01;99744.03;;;9.00;51.94
76940;BME280;65885;55.848;35.916;2023-05-18T01:58:35;99737.59;;;9.10;52.88
76940;BME280;65885;55.848;35.916;2023-05-18T02:01:04;99745.16;;;9.19;52.49
76940;BME280;65885;55.848;35.916;2023-05-18T02:03:34;99748.34;;;9.29;51.78
76940;BME280;65885;55.848;35.916;2023-05-18T02:06:02;99754.16;;;9.38;51.71
76940;BME280;65885;55.848;35.916;2023-05-18T02:08:29;99752.94;;;9.49;51.43
76940;BME280;65885;55.848;35.916;2023-05-18T02:10:56;99754.41;;;9.57;51.65
76940;BME280;65885;55.848;35.916;2023-05-18T02:13:24;99753.25;;;9.66;50.94
76940;BME280;65885;55.848;35.916;2023-05-18T02:15:53;99755.59;;;9.75;51.00
76940;BME280;65885;55.848;35.916;2023-05-18T02:18:20;99749.19;;;9.84;50.97
76940;BME280;65885;55.848;35.916;2023-05-18T02:20:48;99761.06;;;9.94;51.13
76940;BME280;65885;55.848;35.916;2023-05-18T02:23:15;99758.97;;;10.04;51.26
76940;BME280;65885;55.848;35.916;2023-05-18T02:25:43;99763.03;;;10.12;51.31
76940;BME280;65885;55.848;35.916;2023-05-18T02:28:12;99764.44;;;10.24;51.52
76940;BME280;65885;55.848;35.916;2023-05-18T02:30:39;99765.81;;;10.34;51.53
76940;BME280;65885;55.848;35.916;2023-05-18T02:33:08;99762.81;;;10.45;51.67
76940;BME280;65885;55.848;35.916;2023-05-18T02:35:36;99765.91;;;10.56;51.46
76940;BME280;65885;55.848;35.916;2023-05-18T02:38:03;99765.53;;;10.67;51.03
76940;BME280;65885;55.848;35.916;2023-05-18T02:40:30;99763.34;;;10.78;51.72
76940;BME280;65885;55.848;35.916;2023-05-18T02:42:58;99772.50;;;10.91;51.83
76940;BME280;65885;55.848;35.916;2023-05-18T02:45:26;99766.81;;;11.02;51.70
76940;BME280;65885;55.848;35.916;2023-05-18T02:47:53;99768.06;;;11.15;51.36
76940;BME280;65885;55.848;35.916;2023-05-18T02:50:22;99768.41;;;11.29;51.55
76940;BME280;65885;55.848;35.916;2023-05-18T02:52:49;99758.19;;;11.44;52.30
76940;BME280;65885;55.848;35.916;2023-05-18T02:55:17;99764.63;;;11.58;52.44
76940;BME280;65885;55.848;35.916;2023-05-18T02:57:44;99764.00;;;11.74;52.32
76940;BME280;65885;55.848;35.916;2023-05-18T03:00:13;99758.19;;;11.87;52.22
76940;BME280;65885;55.848;35.916;2023-05-18T03:02:42;99755.78;;;12.03;52.27
76940;BME280;65885;55.848;35.916;2023-05-18T03:05:13;99755.13;;;12.18;51.54
76940;BME280;65885;55.848;35.916;2023-05-18T03:07:42;99758.03;;;12.33;51.24
76940;BME280;65885;55.848;35.916;2023-05-18T03:10:15;99759.16;;;12.46;50.94
76940;BME280;65885;55.848;35.916;2023-05-18T03:12:43;99762.97;;;12.59;51.11
76940;BME280;65885;55.848;35.916;2023-05-18T03:15:10;99762.44;;;12.71;50.38
76940;BME280;65885;55.848;35.916;2023-05-18T03:17:39;99759.19;;;12.85;51.20
76940;BME280;65885;55.848;35.916;2023-05-18T03:20:08;99756.03;;;12.96;51.38
76940;BME280;65885;55.848;35.916;2023-05-18T03:22:37;99766.03;;;13.08;51.38
76940;BME280;65885;55.848;35.916;2023-05-18T03:25:08;99757.56;;;13.20;52.19
76940;BME280;65885;55.848;35.916;2023-05-18T03:27:36;99765.75;;;13.33;51.30
76940;BME280;65885;55.848;35.916;2023-05-18T03:30:05;99750.22;;;13.46;51.70
76940;BME280;65885;55.848;35.916;2023-05-18T03:32:33;99758.16;;;13.63;51.87
76940;BME280;65885;55.848;35.916;2023-05-18T03:35:01;99765.22;;;13.80;51.95
76940;BME280;65885;55.848;35.916;2023-05-18T03:37:31;99761.72;;;13.97;51.92
76940;BME280;65885;55.848;35.916;2023-05-18T03:40:08;99760.03;;;14.13;51.95
76940;BME280;65885;55.848;35.916;2023-05-18T03:42:38;99768.72;;;14.32;51.81
76940;BME280;65885;55.848;35.916;2023-05-18T03:45:07;99765.22;;;14.49;51.96
76940;BME280;65885;55.848;35.916;2023-05-18T03:47:34;99767.84;;;14.66;51.50
76940;BME280;65885;55.848;35.916;2023-05-18T03:50:02;99766.94;;;14.83;51.26
76940;BME280;65885;55.848;35.916;2023-05-18T03:52:32;99761.59;;;15.01;51.88
76940;BME280;65885;55.848;35.916;2023-05-18T03:55:00;99773.03;;;15.17;52.80
76940;BME280;65885;55.848;35.916;2023-05-18T03:57:31;99766.91;;;15.32;52.16
76940;BME280;65885;55.848;35.916;2023-05-18T04:00:00;99767.72;;;15.48;52.00
76940;BME280;65885;55.848;35.916;2023-05-18T04:02:33;99766.91;;;15.64;51.33
76940;BME280;65885;55.848;35.916;2023-05-18T04:05:01;99770.31;;;15.81;52.09
76940;BME280;65885;55.848;35.916;2023-05-18T04:07:30;99767.63;;;15.97;51.83
76940;BME280;65885;55.848;35.916;2023-05-18T04:09:57;99765.66;;;16.15;51.74
76940;BME280;65885;55.848;35.916;2023-05-18T04:12:24;99759.38;;;16.32;51.30
76940;BME280;65885;55.848;35.916;2023-05-18T04:14:52;99776.81;;;16.50;50.96
76940;BME280;65885;55.848;35.916;2023-05-18T04:17:21;99766.81;;;16.70;50.64
76940;BME280;65885;55.848;35.916;2023-05-18T04:19:49;99778.09;;;16.87;50.35
76940;BME280;65885;55.848;35.916;2023-05-18T04:22:16;99771.72;;;17.04;50.09
76940;BME280;65885;55.848;35.916;2023-05-18T04:24:44;99773.22;;;17.23;49.94
76940;BME280;65885;55.848;35.916;2023-05-18T04:27:12;99780.00;;;17.41;49.26
76940;BME280;65885;55.848;35.916;2023-05-18T04:29:39;99775.41;;;17.57;48.80
76940;BME280;65885;55.848;35.916;2023-05-18T04:32:09;99773.50;;;17.73;48.63
76940;BME280;65885;55.848;35.916;2023-05-18T04:34:38;99771.63;;;17.88;48.51
76940;BME280;65885;55.848;35.916;2023-05-18T04:37:06;99776.66;;;18.06;48.54
76940;BME280;65885;55.848;35.916;2023-05-18T04:39:35;99781.88;;;18.20;48.22
76940;BME280;65885;55.848;35.916;2023-05-18T04:42:04;99771.19;;;18.34;47.92
76940;BME280;65885;55.848;35.916;2023-05-18T04:44:32;99782.47;;;18.50;48.23
76940;BME280;65885;55.848;35.916;2023-05-18T04:46:59;99776.13;;;18.66;47.72
76940;BME280;65885;55.848;35.916;2023-05-18T04:49:29;99778.56;;;18.81;47.96
76940;BME280;65885;55.848;35.916;2023-05-18T04:51:59;99781.09;;;18.96;47.48
76940;BME280;65885;55.848;35.916;2023-05-18T04:54:28;99783.63;;;19.10;47.13
76940;BME280;65885;55.848;35.916;2023-05-18T04:56:57;99780.09;;;19.22;46.71
76940;BME280;65885;55.848;35.916;2023-05-18T04:59:25;99781.84;;;19.34;46.44
76940;BME280;65885;55.848;35.916;2023-05-18T05:01:54;99777.59;;;19.45;45.81
76940;BME280;65885;55.848;35.916;2023-05-18T05:04:21;99782.25;;;19.54;45.71
76940;BME280;65885;55.848;35.916;2023-05-18T05:06:49;99778.09;;;19.62;45.57
76940;BME280;65885;55.848;35.916;2023-05-18T05:09:18;99781.16;;;19.69;45.07
76940;BME280;65885;55.848;35.916;2023-05-18T05:11:46;99778.03;;;19.75;45.06
76940;BME280;65885;55.848;35.916;2023-05-18T05:14:13;99776.75;;;19.81;44.89
76940;BME280;65885;55.848;35.916;2023-05-18T05:16:41;99786.06;;;19.86;44.84
76940;BME280;65885;55.848;35.916;2023-05-18T05:19:08;99778.59;;;19.91;44.66
76940;BME280;65885;55.848;35.916;2023-05-18T05:21:36;99780.06;;;19.95;44.44
76940;BME280;65885;55.848;35.916;2023-05-18T05:24:04;99785.88;;;20.01;44.32
76940;BME280;65885;55.848;35.916;2023-05-18T05:26:34;99775.75;;;20.06;44.29
76940;BME280;65885;55.848;35.916;2023-05-18T05:29:01;99768.28;;;20.11;44.57
76940;BME280;65885;55.848;35.916;2023-05-18T05:31:28;99769.50;;;20.18;44.36
76940;BME280;65885;55.848;35.916;2023-05-18T05:33:56;99778.59;;;20.27;44.29
76940;BME280;65885;55.848;35.916;2023-05-18T05:36:23;99773.41;;;20.36;44.05
76940;BME280;65885;55.848;35.916;2023-05-18T05:38:51;99778.91;;;20.46;43.57
76940;BME280;65885;55.848;35.916;2023-05-18T05:41:19;99781.84;;;20.54;43.16
76940;BME280;65885;55.848;35.916;2023-05-18T05:43:48;99779.53;;;20.61;42.97
76940;BME280;65885;55.848;35.916;2023-05-18T05:46:18;99783.31;;;20.69;42.62
76940;BME280;65885;55.848;35.916;2023-05-18T05:48:46;99777.38;;;20.77;42.61
76940;BME280;65885;55.848;35.916;2023-05-18T05:51:13;99782.00;;;20.86;42.61
76940;BME280;65885;55.848;35.916;2023-05-18T05:53:41;99799.22;;;20.93;42.33
76940;BME280;65885;55.848;35.916;2023-05-18T05:56:10;99812.81;;;21.01;42.04
76940;BME280;65885;55.848;35.916;2023-05-18T05:58:38;99806.97;;;21.08;41.87
76940;BME280;65885;55.848;35.916;2023-05-18T06:01:08;99807.19;;;21.16;41.94
76940;BME280;65885;55.848;35.916;2023-05-18T06:03:36;99804.66;;;21.25;42.24
76940;BME280;65885;55.848;35.916;2023-05-18T06:06:04;99805.28;;;21.40;42.47
76940;BME280;65885;55.848;35.916;2023-05-18T06:08:31;99798.59;;;21.57;42.57
76940;BME280;65885;55.848;35.916;2023-05-18T06:10:59;99808.22;;;21.80;42.89
76940;BME280;65885;55.848;35.916;2023-05-18T06:13:26;99798.91;;;22.07;42.20
76940;BME280;65885;55.848;35.916;2023-05-18T06:15:54;99802.09;;;22.33;41.87
76940;BME280;65885;55.848;35.916;2023-05-18T06:18:23;99801.13;;;22.55;41.49
76940;BME280;65885;55.848;35.916;2023-05-18T06:20:51;99803.66;;;22.77;40.51
76940;BME280;65885;55.848;35.916;2023-05-18T06:23:22;99799.16;;;22.98;40.33
76940;BME280;65885;55.848;35.916;2023-05-18T06:25:49;99811.34;;;23.22;39.73
76940;BME280;65885;55.848;35.916;2023-05-18T06:28:18;99814.69;;;23.45;39.66
76940;BME280;65885;55.848;35.916;2023-05-18T06:30:45;99815.19;;;23.69;39.71
76940;BME280;65885;55.848;35.916;2023-05-18T06:33:13;99819.88;;;23.96;39.54
76940;BME280;65885;55.848;35.916;2023-05-18T06:35:42;99820.75;;;24.26;39.37
76940;BME280;65885;55.848;35.916;2023-05-18T06:38:10;99819.72;;;24.56;38.79
76940;BME280;65885;55.848;35.916;2023-05-18T06:40:38;99824.19;;;24.84;38.32
76940;BME280;65885;55.848;35.916;2023-05-18T06:43:05;99815.53;;;25.10;37.90
76940;BME280;65885;55.848;35.916;2023-05-18T06:45:33;99816.69;;;25.35;38.07
76940;BME280;65885;55.848;35.916;2023-05-18T06:48:00;99825.72;;;25.61;38.33
76940;BME280;65885;55.848;35.916;2023-05-18T06:50:28;99817.66;;;25.89;37.61
76940;BME280;65885;55.848;35.916;2023-05-18T06:52:57;99825.13;;;26.13;36.64
76940;BME280;65885;55.848;35.916;2023-05-18T06:55:25;99826.97;;;26.30;35.40
76940;BME280;65885;55.848;35.916;2023-05-18T06:57:52;99829.13;;;26.44;35.22
76940;BME280;65885;55.848;35.916;2023-05-18T07:00:21;99820.66;;;26.57;34.82
76940;BME280;65885;55.848;35.916;2023-05-18T07:02:49;99828.63;;;26.67;34.27
76940;BME280;65885;55.848;35.916;2023-05-18T07:05:17;99829.84;;;26.72;34.00
76940;BME280;65885;55.848;35.916;2023-05-18T07:07:45;99823.00;;;26.78;34.13
76940;BME280;65885;55.848;35.916;2023-05-18T07:10:15;99824.22;;;26.83;34.18
76940;BME280;65885;55.848;35.916;2023-05-18T07:12:42;99829.94;;;26.89;33.98
76940;BME280;65885;55.848;35.916;2023-05-18T07:15:10;99824.41;;;26.90;33.84
76940;BME280;65885;55.848;35.916;2023-05-18T07:17:38;99832.47;;;26.90;33.89
76940;BME280;65885;55.848;35.916;2023-05-18T07:20:07;99828.94;;;26.90;33.51
76940;BME280;65885;55.848;35.916;2023-05-18T07:22:37;99827.09;;;26.90;33.64
76940;BME280;65885;55.848;35.916;2023-05-18T07:25:05;99825.41;;;26.89;32.85
76940;BME280;65885;55.848;35.916;2023-05-18T07:27:33;99835.66;;;26.86;33.12
76940;BME280;65885;55.848;35.916;2023-05-18T07:30:01;99838.38;;;26.86;33.18
76940;BME280;65885;55.848;35.916;2023-05-18T07:32:32;99838.38;;;26.86;33.51
76940;BME280;65885;55.848;35.916;2023-05-18T07:34:59;99837.88;;;26.90;34.06
76940;BME280;65885;55.848;35.916;2023-05-18T07:37:30;99848.00;;;26.96;34.00
76940;BME280;65885;55.848;35.916;2023-05-18T07:39:58;99836.59;;;27.02;34.33
76940;BME280;65885;55.848;35.916;2023-05-18T07:42:25;99840.75;;;27.15;34.77
76940;BME280;65885;55.848;35.916;2023-05-18T07:44:54;99849.22;;;27.28;33.99
76940;BME280;65885;55.848;35.916;2023-05-18T07:47:21;99850.97;;;27.37;33.74
76940;BME280;65885;55.848;35.916;2023-05-18T07:49:49;99850.63;;;27.40;33.22
76940;BME280;65885;55.848;35.916;2023-05-18T07:52:16;99857.72;;;27.41;33.31
76940;BME280;65885;55.848;35.916;2023-05-18T07:54:43;99842.91;;;27.37;32.70
76940;BME280;65885;55.848;35.916;2023-05-18T07:57:11;99857.69;;;27.33;32.89
76940;BME280;65885;55.848;35.916;2023-05-18T07:59:39;99860.38;;;27.33;32.85
76940;BME280;65885;55.848;35.916;2023-05-18T08:02:08;99861.03;;;27.35;33.27
76940;BME280;65885;55.848;35.916;2023-05-18T08:04:35;99877.47;;;27.50;33.91
76940;BME280;65885;55.848;35.916;2023-05-18T08:07:03;99867.59;;;27.67;33.88
76940;BME280;65885;55.848;35.916;2023-05-18T08:09:30;99877.81;;;27.89;33.53
76940;BME280;65885;55.848;35.916;2023-05-18T08:11:57;99875.34;;;28.12;33.64
76940;BME280;65885;55.848;35.916;2023-05-18T08:14:28;99880.63;;;28.38;32.66
76940;BME280;65885;55.848;35.916;2023-05-18T08:16:56;99883.88;;;28.58;32.49
76940;BME280;65885;55.848;35.916;2023-05-18T08:19:26;99876.94;;;28.80;32.03
76940;BME280;65885;55.848;35.916;2023-05-18T08:21:53;99874.56;;;29.01;31.25
76940;BME280;65885;55.848;35.916;2023-05-18T08:24:20;99877.72;;;29.21;31.26
76940;BME280;65885;55.848;35.916;2023-05-18T08:26:48;99866.69;;;29.39;30.87
76940;BME280;65885;55.848;35.916;2023-05-18T08:29:16;99882.41;;;29.51;30.70
76940;BME280;65885;55.848;35.916;2023-05-18T08:31:43;99878.81;;;29.59;29.69
76940;BME280;65885;55.848;35.916;2023-05-18T08:34:11;99870.38;;;29.54;29.52
76940;BME280;65885;55.848;35.916;2023-05-18T08:36:41;99875.47;;;29.41;29.07
76940;BME280;65885;55.848;35.916;2023-05-18T08:39:10;99868.78;;;29.20;28.91
76940;BME280;65885;55.848;35.916;2023-05-18T08:41:40;99868.47;;;29.07;29.67
76940;BME280;65885;55.848;35.916;2023-05-18T08:44:15;99869.50;;;29.06;30.62
76940;BME280;65885;55.848;35.916;2023-05-18T08:46:44;99871.50;;;29.12;30.43
76940;BME280;65885;55.848;35.916;2023-05-18T08:49:12;99875.22;;;29.11;30.21
76940;BME280;65885;55.848;35.916;2023-05-18T08:51:45;99875.72;;;29.15;29.95
76940;BME280;65885;55.848;35.916;2023-05-18T08:54:17;99874.22;;;29.12;29.84
76940;BME280;65885;55.848;35.916;2023-05-18T08:56:46;99881.97;;;29.07;29.87
76940;BME280;65885;55.848;35.916;2023-05-18T08:59:17;99883.19;;;29.05;29.80
76940;BME280;65885;55.848;35.916;2023-05-18T09:01:46;99882.00;;;28.99;30.25
76940;BME280;65885;55.848;35.916;2023-05-18T09:04:13;99882.00;;;28.99;30.31
76940;BME280;65885;55.848;35.916;2023-05-18T09:06:43;99878.81;;;28.95;30.15
76940;BME280;65885;55.848;35.916;2023-05-18T09:09:12;99884.72;;;28.91;30.24
76940;BME280;65885;55.848;35.916;2023-05-18T09:11:40;99888.22;;;28.83;30.58
76940;BME280;65885;55.848;35.916;2023-05-18T09:14:08;99886.03;;;28.79;30.73
76940;BME280;65885;55.848;35.916;2023-05-18T09:16:36;99888.72;;;28.79;30.57
76940;BME280;65885;55.848;35.916;2023-05-18T09:19:04;99872.03;;;28.83;30.86
76940;BME280;65885;55.848;35.916;2023-05-18T09:21:35;99878.94;;;28.94;31.25
76940;BME280;65885;55.848;35.916;2023-05-18T09:24:04;99876.25;;;29.10;31.77
76940;BME280;65885;55.848;35.916;2023-05-18T09:26:32;99875.19;;;29.27;31.06
76940;BME280;65885;55.848;35.916;2023-05-18T09:29:00;99874.31;;;29.35;30.19
76940;BME280;65885;55.848;35.916;2023-05-18T09:31:30;99879.88;;;29.42;31.04
76940;BME280;65885;55.848;35.916;2023-05-18T09:33:58;99885.44;;;29.48;31.16
76940;BME280;65885;55.848;35.916;2023-05-18T09:36:26;99878.81;;;29.59;30.76
76940;BME280;65885;55.848;35.916;2023-05-18T09:38:54;99891.47;;;29.67;30.26
76940;BME280;65885;55.848;35.916;2023-05-18T09:41:25;99890.56;;;29.74;29.93
76940;BME280;65885;55.848;35.916;2023-05-18T09:43:53;99885.81;;;29.76;30.17
76940;BME280;65885;55.848;35.916;2023-05-18T09:46:21;99885.00;;;29.76;30.45
76940;BME280;65885;55.848;35.916;2023-05-18T09:48:50;99888.19;;;29.79;30.10
76940;BME280;65885;55.848;35.916;2023-05-18T09:51:18;99882.25;;;29.84;30.02
76940;BME280;65885;55.848;35.916;2023-05-18T09:53:52;99886.47;;;29.87;29.80
76940;BME280;65885;55.848;35.916;2023-05-18T09:56:21;99888.63;;;29.91;29.85
76940;BME280;65885;55.848;35.916;2023-05-18T09:58:51;99895.56;;;29.94;29.34
76940;BME280;65885;55.848;35.916;2023-05-18T10:01:18;99893.84;;;30.01;29.30
76940;BME280;65885;55.848;35.916;2023-05-18T10:03:46;99893.84;;;30.01;29.21
76940;BME280;65885;55.848;35.916;2023-05-18T10:06:15;99899.25;;;30.01;29.33
76940;BME280;65885;55.848;35.916;2023-05-18T10:08:44;99891.84;;;29.95;29.24
76940;BME280;65885;55.848;35.916;2023-05-18T10:11:12;99893.69;;;29.94;29.41
76940;BME280;65885;55.848;35.916;2023-05-18T10:13:44;99895.03;;;29.98;29.67
76940;BME280;65885;55.848;35.916;2023-05-18T10:16:14;99896.53;;;30.01;29.27
76940;BME280;65885;55.848;35.916;2023-05-18T10:18:42;99896.00;;;30.05;29.15
76940;BME280;65885;55.848;35.916;2023-05-18T10:21:11;99890.38;;;30.15;29.82
76940;BME280;65885;55.848;35.916;2023-05-18T10:23:40;99902.66;;;30.26;30.34
76940;BME280;65885;55.848;35.916;2023-05-18T10:26:11;99905.97;;;30.36;29.53
76940;BME280;65885;55.848;35.916;2023-05-18T10:28:41;99904.94;;;30.37;29.15
76940;BME280;65885;55.848;35.916;2023-05-18T10:31:09;99896.56;;;30.32;28.92
76940;BME280;65885;55.848;35.916;2023-05-18T10:33:40;99896.88;;;30.29;29.79
76940;BME280;65885;55.848;35.916;2023-05-18T10:36:10;99896.41;;;30.25;29.70
76940;BME280;65885;55.848;35.916;2023-05-18T10:38:38;99898.47;;;30.23;30.07
76940;BME280;65885;55.848;35.916;2023-05-18T10:41:09;99902.84;;;30.24;29.61
76940;BME280;65885;55.848;35.916;2023-05-18T10:43:40;99901.38;;;30.14;28.91
76940;BME280;65885;55.848;35.916;2023-05-18T10:46:11;99898.22;;;30.02;29.12
76940;BME280;65885;55.848;35.916;2023-05-18T10:48:44;99896.75;;;29.91;29.04
76940;BME280;65885;55.848;35.916;2023-05-18T10:51:14;99900.69;;;29.80;28.72
76940;BME280;65885;55.848;35.916;2023-05-18T10:53:44;99899.09;;;29.63;29.22
76940;BME280;65885;55.848;35.916;2023-05-18T10:56:14;99897.94;;;29.41;28.67
76940;BME280;65885;55.848;35.916;2023-05-18T10:58:42;99897.88;;;29.10;28.69
76940;BME280;65885;55.848;35.916;2023-05-18T11:01:10;99901.25;;;28.80;29.27
76940;BME280;65885;55.848;35.916;2023-05-18T11:03:39;99895.50;;;28.42;29.84
76940;BME280;65885;55.848;35.916;2023-05-18T11:06:10;99893.06;;;28.14;30.69
76940;BME280;65885;55.848;35.916;2023-05-18T11:08:42;99896.88;;;27.96;30.90
76940;BME280;65885;55.848;35.916;2023-05-18T11:11:10;99898.03;;;27.85;31.37
76940;BME280;65885;55.848;35.916;2023-05-18T11:13:42;99896.34;;;27.84;32.12
76940;BME280;65885;55.848;35.916;2023-05-18T11:16:10;99904.47;;;27.92;32.08
76940;BME280;65885;55.848;35.916;2023-05-18T11:18:40;99898.06;;;28.01;32.20
76940;BME280;65885;55.848;35.916;2023-05-18T11:21:21;99894.22;;;28.12;32.16
76940;BME280;65885;55.848;35.916;2023-05-18T11:24:17;99888.56;;;28.31;31.97
76940;BME280;65885;55.848;35.916;2023-05-18T11:26:47;99908.16;;;28.50;31.93
76940;BME280;65885;55.848;35.916;2023-05-18T11:29:19;99891.78;;;28.59;30.87
76940;BME280;65885;55.848;35.916;2023-05-18T11:31:50;99898.88;;;28.60;30.63
76940;BME280;65885;55.848;35.916;2023-05-18T11:34:49;99889.94;;;28.43;30.10
76940;BME280;65885;55.848;35.916;2023-05-18T11:37:47;99885.81;;;28.15;30.28
76940;BME280;65885;55.848;35.916;2023-05-18T11:40:46;99889.91;;;27.77;30.33
76940;BME280;65885;55.848;35.916;2023-05-18T11:43:21;99886.03;;;27.45;31.11
76940;BME280;65885;55.848;35.916;2023-05-18T11:45:52;99889.59;;;27.20;31.50
76940;BME280;65885;55.848;35.916;2023-05-18T11:48:21;99888.41;;;26.96;32.05
76940;BME280;65885;55.848;35.916;2023-05-18T11:50:48;99890.97;;;26.80;32.43
76940;BME280;65885;55.848;35.916;2023-05-18T11:53:21;99887.00;;;26.66;33.04
76940;BME280;65885;55.848;35.916;2023-05-18T11:55:51;99893.47;;;26.55;33.20
76940;BME280;65885;55.848;35.916;2023-05-18T11:58:19;99894.69;;;26.43;33.46
76940;BME280;65885;55.848;35.916;2023-05-18T12:00:47;99889.53;;;26.32;33.70
76940;BME280;65885;55.848;35.916;2023-05-18T12:03:15;99892.06;;;26.16;33.74
76940;BME280;65885;55.848;35.916;2023-05-18T12:05:42;99887.91;;;26.04;33.75
76940;BME280;65885;55.848;35.916;2023-05-18T12:08:16;99892.63;;;25.92;34.47
76940;BME280;65885;55.848;35.916;2023-05-18T12:10:47;99889.63;;;25.77;34.62
76940;BME280;65885;55.848;35.916;2023-05-18T12:13:16;99885.72;;;25.62;34.64
76940;BME280;65885;55.848;35.916;2023-05-18T12:15:43;99886.78;;;25.41;35.82
76940;BME280;65885;55.848;35.916;2023-05-18T12:18:11;99886.25;;;25.28;36.02
76940;BME280;65885;55.848;35.916;2023-05-18T12:20:39;99890.84;;;25.18;36.08
76940;BME280;65885;55.848;35.916;2023-05-18T12:23:06;99881.66;;;25.11;36.21
76940;BME280;65885;55.848;35.916;2023-05-18T12:25:34;99887.03;;;25.11;36.30
76940;BME280;65885;55.848;35.916;2023-05-18T12:28:04;99886.19;;;25.10;36.71
76940;BME280;65885;55.848;35.916;2023-05-18T12:30:32;99885.34;;;25.10;36.73
76940;BME280;65885;55.848;35.916;2023-05-18T12:33:07;99886.63;;;25.06;36.99
76940;BME280;65885;55.848;35.916;2023-05-18T12:35:34;99894.22;;;25.01;36.71
76940;BME280;65885;55.848;35.916;2023-05-18T12:38:02;99891.97;;;24.96;36.91
76940;BME280;65885;55.848;35.916;2023-05-18T12:40:34;99888.88;;;24.91;36.80
76940;BME280;65885;55.848;35.916;2023-05-18T12:43:10;99888.59;;;24.84;36.90
76940;BME280;65885;55.848;35.916;2023-05-18T12:45:38;99899.78;;;24.80;37.28
76940;BME280;65885;55.848;35.916;2023-05-18T12:48:07;99900.34;;;24.74;37.57
76940;BME280;65885;55.848;35.916;2023-05-18T12:50:35;99898.38;;;24.66;37.10
76940;BME280;65885;55.848;35.916;2023-05-18T12:53:04;99898.25;;;24.58;37.14
76940;BME280;65885;55.848;35.916;2023-05-18T12:55:31;99895.69;;;24.47;37.57
76940;BME280;65885;55.848;35.916;2023-05-18T12:58:00;99899.38;;;24.36;37.43
76940;BME280;65885;55.848;35.916;2023-05-18T13:00:32;99896.91;;;24.23;37.29
76940;BME280;65885;55.848;35.916;2023-05-18T13:03:06;99900.00;;;24.09;37.53